createdAt,value
2022-09-14T00:00:58.645Z,1122.86
2022-09-14T00:01:48.962Z,1122.95
2022-09-14T00:02:48.971Z,1122.92
2022-09-14T00:03:48.816Z,1122.96
2022-09-14T00:04:48.818Z,1122.96
2022-09-14T00:05:48.821Z,1122.96
2022-09-14T00:06:48.850Z,1122.98
2022-09-14T00:07:48.839Z,1122.95
2022-09-14T00:08:48.885Z,1122.91
2022-09-14T00:09:48.830Z,1122.85
2022-09-14T00:10:48.829Z,1122.85
2022-09-14T00:11:48.830Z,1122.84
2022-09-14T00:12:48.830Z,1122.74
2022-09-14T00:13:48.913Z,1122.74
2022-09-14T00:14:48.835Z,1122.69
2022-09-14T00:15:51.619Z,1122.69
2022-09-14T00:16:48.983Z,1122.62
2022-09-14T00:17:48.841Z,1122.53
2022-09-14T00:18:48.907Z,1122.53
2022-09-14T00:19:48.847Z,1122.55
2022-09-14T00:20:48.851Z,1122.52
2022-09-14T00:21:48.849Z,1122.54
2022-09-14T00:22:48.878Z,1122.49
2022-09-14T00:23:48.858Z,1122.44
2022-09-14T00:24:48.860Z,1122.51
2022-09-14T00:25:48.861Z,1122.42
2022-09-14T00:26:51.613Z,1122.46
2022-09-14T00:27:48.858Z,1122.42
2022-09-14T00:28:48.934Z,1122.46
2022-09-14T00:29:48.863Z,1122.45
2022-09-14T00:30:48.867Z,1122.46
2022-09-14T00:31:48.981Z,1122.5
2022-09-14T00:32:48.869Z,1122.45
2022-09-14T00:33:48.876Z,1122.44
2022-09-14T00:34:48.869Z,1122.39
2022-09-14T00:35:48.872Z,1122.39
2022-09-14T00:36:48.875Z,1122.32
2022-09-14T00:37:52.138Z,1122.28
2022-09-14T00:38:48.876Z,1122.27
2022-09-14T00:39:48.932Z,1122.24
2022-09-14T00:40:48.882Z,1122.23
2022-09-14T00:41:48.892Z,1122.27
2022-09-14T00:42:48.894Z,1122.23
2022-09-14T00:43:48.984Z,1122.28
2022-09-14T00:44:48.891Z,1122.27
2022-09-14T00:45:48.939Z,1122.31
2022-09-14T00:46:48.907Z,1122.3
2022-09-14T00:47:48.900Z,1122.25
2022-09-14T00:48:52.466Z,1122.29
2022-09-14T00:49:48.904Z,1122.34
2022-09-14T00:50:48.902Z,1122.32
2022-09-14T00:51:48.901Z,1122.32
2022-09-14T00:52:48.907Z,1122.31
2022-09-14T00:53:48.928Z,1122.32
2022-09-14T00:54:48.907Z,1122.28
2022-09-14T00:55:48.911Z,1122.26
2022-09-14T00:56:48.910Z,1122.24
2022-09-14T00:57:48.913Z,1122.21
2022-09-14T00:58:48.921Z,1122.21
2022-09-14T00:59:51.964Z,1122.16
2022-09-14T01:00:48.958Z,1122.15
2022-09-14T01:01:48.959Z,1122.12
2022-09-14T01:02:48.925Z,1122.07
2022-09-14T01:03:48.923Z,1122.05
2022-09-14T01:04:48.927Z,1122.09
2022-09-14T01:05:48.927Z,1122.05
2022-09-14T01:06:48.927Z,1122.03
2022-09-14T01:07:48.929Z,1122.02
2022-09-14T01:08:49.005Z,1121.98
2022-09-14T01:09:48.956Z,1121.89
2022-09-14T01:10:48.939Z,1121.89
2022-09-14T01:11:51.585Z,1121.87
2022-09-14T01:12:48.939Z,1121.83
2022-09-14T01:13:48.942Z,1121.81
2022-09-14T01:14:48.942Z,1121.76
2022-09-14T01:15:48.946Z,1121.71
2022-09-14T01:16:49.025Z,1121.7
2022-09-14T01:17:48.949Z,1121.69
2022-09-14T01:18:48.999Z,1121.65
2022-09-14T01:19:48.954Z,1121.6
2022-09-14T01:20:48.954Z,1121.59
2022-09-14T01:21:48.952Z,1121.62
2022-09-14T01:22:48.959Z,1121.56
2022-09-14T01:23:49.066Z,1121.57
2022-09-14T01:24:48.960Z,1121.53
2022-09-14T01:25:48.987Z,1121.51
2022-09-14T01:26:48.961Z,1121.51
2022-09-14T01:27:48.967Z,1121.54
2022-09-14T01:28:48.971Z,1121.47
2022-09-14T01:29:48.970Z,1121.48
2022-09-14T01:30:48.970Z,1121.51
2022-09-14T01:31:49.086Z,1121.56
2022-09-14T01:32:48.973Z,1121.54
2022-09-14T01:33:49.007Z,1121.53
2022-09-14T01:34:48.976Z,1121.56
2022-09-14T01:35:48.987Z,1121.52
2022-09-14T01:36:48.981Z,1121.49
2022-09-14T01:37:48.982Z,1121.51
2022-09-14T01:38:49.001Z,1121.5
2022-09-14T01:39:49.037Z,1121.6
2022-09-14T01:40:48.989Z,1121.57
2022-09-14T01:41:49.015Z,1121.56
2022-09-14T01:42:48.996Z,1121.55
2022-09-14T01:43:48.994Z,1121.5
2022-09-14T01:44:48.993Z,1121.53
2022-09-14T01:45:49.101Z,1121.51
2022-09-14T01:46:48.999Z,1121.46
2022-09-14T01:47:49.014Z,1121.47
2022-09-14T01:48:49.076Z,1121.54
2022-09-14T01:49:49.003Z,1121.47
2022-09-14T01:50:49.006Z,1121.55
2022-09-14T01:51:49.012Z,1121.49
2022-09-14T01:52:49.009Z,1121.44
2022-09-14T01:53:49.069Z,1121.41
2022-09-14T01:54:49.033Z,1121.41
2022-09-14T01:55:49.018Z,1121.42
2022-09-14T01:56:49.017Z,1121.4
2022-09-14T01:57:49.042Z,1121.43
2022-09-14T01:58:49.025Z,1121.43
2022-09-14T01:59:49.040Z,1121.45
2022-09-14T02:00:49.094Z,1121.4
2022-09-14T02:01:50.522Z,1121.37
2022-09-14T02:02:49.027Z,1121.32
2022-09-14T02:03:49.057Z,1121.36
2022-09-14T02:04:49.047Z,1121.32
2022-09-14T02:05:49.034Z,1121.36
2022-09-14T02:06:49.032Z,1121.29
2022-09-14T02:07:49.037Z,1121.29
2022-09-14T02:08:49.041Z,1121.28
2022-09-14T02:09:49.058Z,1121.3
2022-09-14T02:10:49.042Z,1121.28
2022-09-14T02:11:49.042Z,1121.22
2022-09-14T02:12:49.042Z,1121.19
2022-09-14T02:13:49.112Z,1121.2
2022-09-14T02:14:49.065Z,1121.14
2022-09-14T02:15:49.159Z,1121.16
2022-09-14T02:16:49.055Z,1121.15
2022-09-14T02:17:49.056Z,1121.13
2022-09-14T02:18:49.074Z,1121.2
2022-09-14T02:19:49.077Z,1121.2
2022-09-14T02:20:49.058Z,1121.13
2022-09-14T02:21:49.059Z,1121.14
2022-09-14T02:22:49.063Z,1121.11
2022-09-14T02:23:49.063Z,1121.11
2022-09-14T02:24:49.084Z,1121.11
2022-09-14T02:25:49.072Z,1121.06
2022-09-14T02:26:49.073Z,1121.08
2022-09-14T02:27:49.074Z,1121.03
2022-09-14T02:28:49.147Z,1121.01
2022-09-14T02:29:49.240Z,1120.93
2022-09-14T02:30:49.075Z,1120.9
2022-09-14T02:31:49.214Z,1120.89
2022-09-14T02:32:49.078Z,1120.79
2022-09-14T02:33:49.154Z,1120.76
2022-09-14T02:34:49.100Z,1120.77
2022-09-14T02:35:49.087Z,1120.71
2022-09-14T02:36:49.088Z,1120.67
2022-09-14T02:37:49.089Z,1120.7
2022-09-14T02:38:49.094Z,1120.64
2022-09-14T02:39:49.134Z,1120.61
2022-09-14T02:40:49.096Z,1120.58
2022-09-14T02:41:49.097Z,1120.57
2022-09-14T02:42:51.968Z,1120.55
2022-09-14T02:43:49.123Z,1120.58
2022-09-14T02:44:49.120Z,1120.51
2022-09-14T02:45:49.129Z,1120.49
2022-09-14T02:46:49.173Z,1120.39
2022-09-14T02:47:49.107Z,1120.37
2022-09-14T02:48:49.114Z,1120.28
2022-09-14T02:49:49.128Z,1120.27
2022-09-14T02:50:49.108Z,1120.2
2022-09-14T02:51:49.119Z,1120.13
2022-09-14T02:52:49.131Z,1120.13
2022-09-14T02:53:52.183Z,1120.14
2022-09-14T02:54:49.263Z,1120.12
2022-09-14T02:55:49.214Z,1120.11
2022-09-14T02:56:49.120Z,1120.11
2022-09-14T02:57:49.128Z,1120.17
2022-09-14T02:58:49.249Z,1120.15
2022-09-14T02:59:49.148Z,1120.13
2022-09-14T03:00:49.195Z,1120.17
2022-09-14T03:01:49.203Z,1120.13
2022-09-14T03:02:49.133Z,1120.17
2022-09-14T03:03:49.134Z,1120.15
2022-09-14T03:04:50.572Z,1120.13
2022-09-14T03:05:49.141Z,1120.18
2022-09-14T03:06:49.140Z,1120.17
2022-09-14T03:07:49.154Z,1120.22
2022-09-14T03:08:49.147Z,1120.2
2022-09-14T03:09:49.148Z,1120.27
2022-09-14T03:10:49.146Z,1120.32
2022-09-14T03:11:49.152Z,1120.38
2022-09-14T03:12:49.220Z,1120.38
2022-09-14T03:13:49.153Z,1120.43
2022-09-14T03:14:49.152Z,1120.44
2022-09-14T03:15:52.190Z,1120.5
2022-09-14T03:16:49.157Z,1120.54
2022-09-14T03:17:49.269Z,1120.66
2022-09-14T03:18:49.232Z,1120.69
2022-09-14T03:19:49.164Z,1120.68
2022-09-14T03:20:49.162Z,1120.71
2022-09-14T03:21:49.166Z,1120.88
2022-09-14T03:22:49.169Z,1120.87
2022-09-14T03:23:49.258Z,1120.9
2022-09-14T03:24:49.174Z,1120.93
2022-09-14T03:25:49.172Z,1121
2022-09-14T03:26:52.446Z,1120.99
2022-09-14T03:27:49.317Z,1120.95
2022-09-14T03:28:49.178Z,1121.01
2022-09-14T03:29:49.181Z,1120.98
2022-09-14T03:30:49.198Z,1120.97
2022-09-14T03:31:49.256Z,1120.97
2022-09-14T03:32:49.193Z,1120.97
2022-09-14T03:33:49.318Z,1120.89
2022-09-14T03:34:49.191Z,1120.95
2022-09-14T03:35:49.218Z,1120.88
2022-09-14T03:36:49.192Z,1120.88
2022-09-14T03:37:52.275Z,1120.87
2022-09-14T03:38:49.197Z,1120.82
2022-09-14T03:39:49.245Z,1120.77
2022-09-14T03:40:49.197Z,1120.74
2022-09-14T03:41:49.219Z,1120.7
2022-09-14T03:42:49.202Z,1120.68
2022-09-14T03:43:49.269Z,1120.64
2022-09-14T03:44:49.209Z,1120.65
2022-09-14T03:45:49.209Z,1120.68
2022-09-14T03:46:49.285Z,1120.68
2022-09-14T03:47:49.214Z,1120.66
2022-09-14T03:48:49.219Z,1120.63
2022-09-14T03:49:49.236Z,1120.58
2022-09-14T03:50:49.218Z,1120.56
2022-09-14T03:51:49.222Z,1120.57
2022-09-14T03:52:49.222Z,1120.56
2022-09-14T03:53:49.334Z,1120.55
2022-09-14T03:54:49.229Z,1120.53
2022-09-14T03:55:49.238Z,1120.44
2022-09-14T03:56:49.228Z,1120.41
2022-09-14T03:57:49.226Z,1120.29
2022-09-14T03:58:49.242Z,1120.31
2022-09-14T03:59:49.234Z,1120.22
2022-09-14T04:00:49.235Z,1120.2
2022-09-14T04:01:49.279Z,1120.1
2022-09-14T04:02:49.244Z,1120.06
2022-09-14T04:03:49.239Z,1120
2022-09-14T04:04:49.240Z,1119.87
2022-09-14T04:05:49.268Z,1119.72
2022-09-14T04:06:49.251Z,1119.59
2022-09-14T04:07:49.246Z,1119.52
2022-09-14T04:08:49.354Z,1119.57
2022-09-14T04:09:49.252Z,1119.67
2022-09-14T04:10:49.254Z,1119.73
2022-09-14T04:11:49.256Z,1119.82
2022-09-14T04:12:49.257Z,1119.85
2022-09-14T04:13:49.338Z,1119.93
2022-09-14T04:14:49.258Z,1119.96
2022-09-14T04:15:49.294Z,1119.96
2022-09-14T04:16:49.266Z,1119.9
2022-09-14T04:17:49.275Z,1119.85
2022-09-14T04:18:49.270Z,1119.86
2022-09-14T04:19:49.268Z,1119.82
2022-09-14T04:20:49.269Z,1119.85
2022-09-14T04:21:49.379Z,1119.84
2022-09-14T04:22:49.272Z,1119.79
2022-09-14T04:24:49.280Z,1119.66
2022-09-14T04:25:49.278Z,1119.63
2022-09-14T04:26:49.280Z,1119.57
2022-09-14T04:27:59.089Z,1119.66
2022-09-14T04:28:49.287Z,1119.76
2022-09-14T04:29:49.283Z,1119.72
2022-09-14T04:30:49.290Z,1119.78
2022-09-14T04:31:49.348Z,1119.84
2022-09-14T04:32:49.290Z,1119.81
2022-09-14T04:33:49.393Z,1119.8
2022-09-14T04:34:49.294Z,1119.79
2022-09-14T04:35:49.298Z,1119.81
2022-09-14T04:36:49.309Z,1119.84
2022-09-14T04:37:49.324Z,1119.82
2022-09-14T04:38:49.304Z,1119.82
2022-09-14T04:39:49.343Z,1119.77
2022-09-14T04:40:49.304Z,1119.74
2022-09-14T04:41:49.306Z,1119.69
2022-09-14T04:42:49.308Z,1119.52
2022-09-14T04:43:49.309Z,1119.42
2022-09-14T04:44:49.319Z,1119.25
2022-09-14T04:45:49.312Z,1119.13
2022-09-14T04:46:49.326Z,1119.05
2022-09-14T04:47:49.316Z,1119
2022-09-14T04:48:49.369Z,1118.99
2022-09-14T04:49:49.324Z,1119.09
2022-09-14T04:50:49.330Z,1119.16
2022-09-14T04:51:49.330Z,1119.27
2022-09-14T04:52:49.327Z,1119.28
2022-09-14T04:53:49.436Z,1119.36
2022-09-14T04:54:49.330Z,1119.32
2022-09-14T04:55:49.333Z,1119.41
2022-09-14T04:56:49.340Z,1119.42
2022-09-14T04:57:49.333Z,1119.39
2022-09-14T04:58:51.536Z,1119.4
2022-09-14T04:59:49.339Z,1119.53
2022-09-14T05:00:49.345Z,1119.48
2022-09-14T05:01:49.386Z,1119.49
2022-09-14T05:02:49.444Z,1119.46
2022-09-14T05:03:49.389Z,1119.42
2022-09-14T05:04:49.353Z,1119.44
2022-09-14T05:05:49.353Z,1119.44
2022-09-14T05:06:49.351Z,1119.43
2022-09-14T05:07:49.370Z,1119.48
2022-09-14T05:08:49.357Z,1119.42
2022-09-14T05:09:49.477Z,1119.5
2022-09-14T05:10:49.374Z,1119.46
2022-09-14T05:11:49.372Z,1119.39
2022-09-14T05:12:49.362Z,1119.45
2022-09-14T05:13:50.307Z,1119.45
2022-09-14T05:14:49.362Z,1119.46
2022-09-14T05:15:49.402Z,1119.37
2022-09-14T05:16:49.368Z,1119.37
2022-09-14T05:17:49.371Z,1119.33
2022-09-14T05:18:49.427Z,1119.39
2022-09-14T05:19:49.372Z,1119.34
2022-09-14T05:20:50.678Z,1119.34
2022-09-14T05:21:49.375Z,1119.29
2022-09-14T05:22:49.378Z,1119.33
2022-09-14T05:23:49.381Z,1119.29
2022-09-14T05:24:49.385Z,1119.29
2022-09-14T05:25:49.466Z,1119.23
2022-09-14T05:26:49.386Z,1119.26
2022-09-14T05:27:49.387Z,1119.35
2022-09-14T05:28:49.389Z,1119.34
2022-09-14T05:29:49.392Z,1119.33
2022-09-14T05:30:49.439Z,1119.32
2022-09-14T05:31:52.169Z,1119.29
2022-09-14T05:32:49.408Z,1119.31
2022-09-14T05:33:49.405Z,1119.33
2022-09-14T05:34:49.400Z,1119.27
2022-09-14T05:35:49.407Z,1119.26
2022-09-14T05:36:49.443Z,1119.28
2022-09-14T05:37:49.406Z,1119.21
2022-09-14T05:38:49.411Z,1119.24
2022-09-14T05:39:49.439Z,1119.21
2022-09-14T05:40:49.410Z,1119.2
2022-09-14T05:41:49.454Z,1119.14
2022-09-14T05:42:52.498Z,1119.15
2022-09-14T05:43:49.417Z,1119.21
2022-09-14T05:44:49.415Z,1119.23
2022-09-14T05:45:49.421Z,1119.24
2022-09-14T05:46:49.461Z,1119.22
2022-09-14T05:47:49.426Z,1119.22
2022-09-14T05:48:49.456Z,1119.18
2022-09-14T05:49:49.429Z,1119.24
2022-09-14T05:50:49.428Z,1119.24
2022-09-14T05:51:49.438Z,1119.26
2022-09-14T05:52:49.434Z,1119.28
2022-09-14T05:53:52.203Z,1119.14
2022-09-14T05:54:49.434Z,1119.18
2022-09-14T05:55:49.438Z,1119.23
2022-09-14T05:56:49.440Z,1119.18
2022-09-14T05:57:49.463Z,1119.22
2022-09-14T05:58:49.445Z,1119.19
2022-09-14T05:59:49.445Z,1119.18
2022-09-14T06:00:49.445Z,1119.17
2022-09-14T06:01:49.496Z,1119.16
2022-09-14T06:02:49.451Z,1119.18
2022-09-14T06:03:49.478Z,1119.12
2022-09-14T06:04:52.509Z,1119.15
2022-09-14T06:05:49.457Z,1119.04
2022-09-14T06:07:07.891Z,1119.05
2022-09-14T06:07:49.456Z,1119.03
2022-09-14T06:08:49.469Z,1119.01
2022-09-14T06:09:49.465Z,1119.01
2022-09-14T06:10:49.464Z,1118.98
2022-09-14T06:11:49.470Z,1118.9
2022-09-14T06:12:52.299Z,1118.88
2022-09-14T06:13:49.583Z,1118.88
2022-09-14T06:14:49.469Z,1118.79
2022-09-14T06:15:49.472Z,1118.78
2022-09-14T06:16:49.477Z,1118.7
2022-09-14T06:17:49.476Z,1118.6
2022-09-14T06:18:49.496Z,1118.62
2022-09-14T06:19:49.482Z,1118.56
2022-09-14T06:20:49.480Z,1118.48
2022-09-14T06:21:49.483Z,1118.49
2022-09-14T06:22:49.490Z,1118.44
2022-09-14T06:23:49.489Z,1118.41
2022-09-14T06:24:49.488Z,1118.42
2022-09-14T06:25:49.497Z,1118.42
2022-09-14T06:26:49.501Z,1118.4
2022-09-14T06:27:49.496Z,1118.37
2022-09-14T06:28:49.505Z,1118.34
2022-09-14T06:29:49.616Z,1118.35
2022-09-14T06:30:49.503Z,1118.34
2022-09-14T06:31:49.499Z,1118.31
2022-09-14T06:32:49.518Z,1118.4
2022-09-14T06:33:49.503Z,1118.41
2022-09-14T06:34:49.507Z,1118.41
2022-09-14T06:35:49.513Z,1118.37
2022-09-14T06:36:49.703Z,1118.4
2022-09-14T06:37:49.510Z,1118.44
2022-09-14T06:38:49.552Z,1118.4
2022-09-14T06:39:49.572Z,1118.44
2022-09-14T06:40:49.516Z,1118.42
2022-09-14T06:41:49.517Z,1118.45
2022-09-14T06:42:49.526Z,1118.52
2022-09-14T06:43:49.525Z,1118.48
2022-09-14T06:44:49.525Z,1118.49
2022-09-14T06:45:49.638Z,1118.56
2022-09-14T06:46:49.530Z,1118.56
2022-09-14T06:47:49.530Z,1118.63
2022-09-14T06:48:49.530Z,1118.66
2022-09-14T06:49:49.534Z,1118.65
2022-09-14T06:50:49.559Z,1118.64
2022-09-14T06:51:49.534Z,1118.71
2022-09-14T06:52:49.536Z,1118.69
2022-09-14T06:53:49.599Z,1118.74
2022-09-14T06:54:49.540Z,1118.77
2022-09-14T06:55:49.539Z,1118.77
2022-09-14T06:56:49.544Z,1118.84
2022-09-14T06:57:49.545Z,1118.84
2022-09-14T06:58:49.547Z,1118.82
2022-09-14T06:59:49.552Z,1118.84
2022-09-14T07:00:49.550Z,1118.86
2022-09-14T07:01:49.583Z,1118.92
2022-09-14T07:02:52.403Z,1118.83
2022-09-14T07:03:49.555Z,1118.88
2022-09-14T07:04:49.558Z,1118.81
2022-09-14T07:05:49.565Z,1118.79
2022-09-14T07:06:49.571Z,1118.71
2022-09-14T07:07:49.567Z,1118.73
2022-09-14T07:08:49.565Z,1118.66
2022-09-14T07:09:49.567Z,1118.64
2022-09-14T07:10:49.569Z,1118.64
2022-09-14T07:11:49.568Z,1118.65
2022-09-14T07:12:49.575Z,1118.55
2022-09-14T07:13:49.575Z,1118.52
2022-09-14T07:14:49.575Z,1118.51
2022-09-14T07:15:49.577Z,1118.47
2022-09-14T07:16:49.580Z,1118.43
2022-09-14T07:17:49.608Z,1118.44
2022-09-14T07:18:49.616Z,1118.48
2022-09-14T07:19:49.586Z,1118.45
2022-09-14T07:20:49.585Z,1118.42
2022-09-14T07:21:49.585Z,1118.45
2022-09-14T07:22:49.593Z,1118.54
2022-09-14T07:23:49.592Z,1118.66
2022-09-14T07:24:49.591Z,1118.66
2022-09-14T07:25:49.603Z,1118.73
2022-09-14T07:26:49.597Z,1118.75
2022-09-14T07:27:49.598Z,1118.76
2022-09-14T07:28:49.597Z,1118.79
2022-09-14T07:29:49.602Z,1118.87
2022-09-14T07:30:49.662Z,1118.9
2022-09-14T07:31:49.605Z,1118.95
2022-09-14T07:32:49.606Z,1118.94
2022-09-14T07:33:49.720Z,1118.91
2022-09-14T07:34:49.610Z,1118.99
2022-09-14T07:35:49.611Z,1118.99
2022-09-14T07:36:49.631Z,1119.08
2022-09-14T07:37:49.617Z,1119.17
2022-09-14T07:38:52.454Z,1119.13
2022-09-14T07:39:49.675Z,1119.02
2022-09-14T07:40:49.622Z,1118.98
2022-09-14T07:41:49.642Z,1118.95
2022-09-14T07:42:49.622Z,1119
2022-09-14T07:43:49.626Z,1118.94
2022-09-14T07:44:49.629Z,1118.94
2022-09-14T07:45:49.688Z,1119.01
2022-09-14T07:46:49.646Z,1119.05
2022-09-14T07:47:52.500Z,1118.99
2022-09-14T07:48:49.720Z,1119.04
2022-09-14T07:49:49.661Z,1119.11
2022-09-14T07:50:49.647Z,1119.06
2022-09-14T07:51:49.656Z,1119.1
2022-09-14T07:52:49.641Z,1119.12
2022-09-14T07:53:49.643Z,1119.06
2022-09-14T07:54:49.646Z,1119.13
2022-09-14T07:55:49.646Z,1119.08
2022-09-14T07:56:49.667Z,1119.03
2022-09-14T07:57:56.351Z,1119.13
2022-09-14T07:58:54.853Z,1119.11
2022-09-14T07:59:49.657Z,1119.12
2022-09-14T08:00:49.657Z,1119.15
2022-09-14T08:01:49.802Z,1119.08
2022-09-14T08:02:49.702Z,1119.13
2022-09-14T08:03:49.684Z,1119.16
2022-09-14T08:04:49.666Z,1119.11
2022-09-14T08:05:49.689Z,1119.19
2022-09-14T08:06:49.682Z,1119.11
2022-09-14T08:07:49.668Z,1119.24
2022-09-14T08:08:49.749Z,1119.21
2022-09-14T08:09:52.692Z,1119.2
2022-09-14T08:10:49.678Z,1119.21
2022-09-14T08:11:49.694Z,1119.22
2022-09-14T08:12:49.683Z,1119.23
2022-09-14T08:13:49.684Z,1119.26
2022-09-14T08:14:49.682Z,1119.26
2022-09-14T08:15:49.691Z,1119.27
2022-09-14T08:16:49.744Z,1119.21
2022-09-14T08:17:49.688Z,1119.21
2022-09-14T08:18:49.692Z,1119.23
2022-09-14T08:19:49.691Z,1119.21
2022-09-14T08:20:52.601Z,1119.24
2022-09-14T08:21:49.708Z,1119.25
2022-09-14T08:22:49.697Z,1119.27
2022-09-14T08:23:49.694Z,1119.33
2022-09-14T08:24:49.697Z,1119.3
2022-09-14T08:25:49.699Z,1119.34
2022-09-14T08:26:49.721Z,1119.39
2022-09-14T08:27:49.703Z,1119.39
2022-09-14T08:28:49.765Z,1119.38
2022-09-14T08:29:49.706Z,1119.41
2022-09-14T08:30:49.712Z,1119.44
2022-09-14T08:31:52.842Z,1119.41
2022-09-14T08:32:49.717Z,1119.44
2022-09-14T08:33:49.715Z,1119.4
2022-09-14T08:34:49.716Z,1119.4
2022-09-14T08:35:58.278Z,1119.37
2022-09-14T08:36:49.745Z,1119.4
2022-09-14T08:37:49.720Z,1119.4
2022-09-14T08:38:49.731Z,1119.41
2022-09-14T08:39:51.716Z,1119.35
2022-09-14T08:40:49.730Z,1119.38
2022-09-14T08:41:49.730Z,1119.38
2022-09-14T08:42:49.735Z,1119.39
2022-09-14T08:43:49.785Z,1119.37
2022-09-14T08:44:49.736Z,1119.3
2022-09-14T08:45:49.785Z,1119.3
2022-09-14T08:46:49.752Z,1119.26
2022-09-14T08:47:49.742Z,1119.31
2022-09-14T08:48:49.807Z,1119.25
2022-09-14T08:49:49.742Z,1119.26
2022-09-14T08:50:49.743Z,1119.26
2022-09-14T08:51:49.747Z,1119.28
2022-09-14T08:52:49.776Z,1119.27
2022-09-14T08:53:49.807Z,1119.22
2022-09-14T08:54:49.749Z,1119.23
2022-09-14T08:55:49.759Z,1119.22
2022-09-14T08:56:49.754Z,1119.24
2022-09-14T08:57:49.756Z,1119.26
2022-09-14T08:58:49.755Z,1119.21
2022-09-14T08:59:49.782Z,1119.22
2022-09-14T09:00:49.812Z,1119.17
2022-09-14T09:01:49.770Z,1119.14
2022-09-14T09:02:49.770Z,1119.16
2022-09-14T09:03:49.819Z,1119.17
2022-09-14T09:04:49.770Z,1119.1
2022-09-14T09:05:49.773Z,1119.13
2022-09-14T09:06:49.774Z,1119.1
2022-09-14T09:07:49.773Z,1119.12
2022-09-14T09:08:49.800Z,1119.11
2022-09-14T09:09:49.778Z,1119.12
2022-09-14T09:10:49.777Z,1119.14
2022-09-14T09:11:49.780Z,1119.09
2022-09-14T09:12:49.787Z,1119.08
2022-09-14T09:13:49.792Z,1119.02
2022-09-14T09:14:49.784Z,1118.99
2022-09-14T09:15:49.867Z,1118.99
2022-09-14T09:16:49.818Z,1118.92
2022-09-14T09:17:49.794Z,1118.91
2022-09-14T09:18:49.813Z,1118.74
2022-09-14T09:19:49.795Z,1118.66
2022-09-14T09:20:49.804Z,1118.58
2022-09-14T09:21:49.805Z,1118.44
2022-09-14T09:22:49.801Z,1118.36
2022-09-14T09:23:49.897Z,1118.31
2022-09-14T09:24:49.921Z,1118.25
2022-09-14T09:25:49.805Z,1118.16
2022-09-14T09:26:49.805Z,1118.13
2022-09-14T09:27:49.810Z,1118.1
2022-09-14T09:28:49.812Z,1118.07
2022-09-14T09:29:49.816Z,1118.11
2022-09-14T09:30:49.816Z,1118.02
2022-09-14T09:31:49.880Z,1118.03
2022-09-14T09:32:49.818Z,1118.02
2022-09-14T09:33:49.892Z,1118
2022-09-14T09:34:49.826Z,1117.98
2022-09-14T09:35:49.822Z,1117.94
2022-09-14T09:36:49.841Z,1117.9
2022-09-14T09:37:49.840Z,1117.85
2022-09-14T09:38:49.889Z,1117.87
2022-09-14T09:39:49.912Z,1117.79
2022-09-14T09:40:49.855Z,1117.77
2022-09-14T09:41:49.833Z,1117.71
2022-09-14T09:42:49.846Z,1117.6
2022-09-14T09:43:49.975Z,1117.63
2022-09-14T09:44:49.841Z,1117.56
2022-09-14T09:45:49.843Z,1117.53
2022-09-14T09:46:49.899Z,1117.55
2022-09-14T09:47:49.846Z,1117.56
2022-09-14T09:48:49.864Z,1117.52
2022-09-14T09:49:49.848Z,1117.55
2022-09-14T09:50:49.852Z,1117.48
2022-09-14T09:51:49.853Z,1117.48
2022-09-14T09:52:49.872Z,1117.49
2022-09-14T09:53:49.885Z,1117.52
2022-09-14T09:54:49.863Z,1117.57
2022-09-14T09:55:49.862Z,1117.57
2022-09-14T09:56:49.968Z,1117.55
2022-09-14T09:57:49.864Z,1117.56
2022-09-14T09:58:49.866Z,1117.4
2022-09-14T09:59:49.872Z,1117.36
2022-09-14T10:00:49.931Z,1117.27
2022-09-14T10:01:49.911Z,1117.27
2022-09-14T10:02:49.876Z,1117.25
2022-09-14T10:03:49.912Z,1117.17
2022-09-14T10:04:49.878Z,1117.11
2022-09-14T10:05:49.876Z,1117.04
2022-09-14T10:06:49.880Z,1117.03
2022-09-14T10:07:49.892Z,1117.01
2022-09-14T10:08:49.895Z,1117.02
2022-09-14T10:09:49.882Z,1116.92
2022-09-14T10:10:49.888Z,1116.88
2022-09-14T10:11:49.886Z,1116.82
2022-09-14T10:12:49.913Z,1116.67
2022-09-14T10:13:49.894Z,1116.56
2022-09-14T10:14:49.988Z,1116.45
2022-09-14T10:15:50.087Z,1116.32
2022-09-14T10:16:49.899Z,1116.18
2022-09-14T10:17:49.902Z,1116.02
2022-09-14T10:18:50.142Z,1115.69
2022-09-14T10:19:49.914Z,1115.52
2022-09-14T10:20:49.907Z,1115.24
2022-09-14T10:21:49.907Z,1115.06
2022-09-14T10:22:49.915Z,1114.87
2022-09-14T10:23:49.930Z,1114.65
2022-09-14T10:24:49.911Z,1114.25
2022-09-14T10:25:52.964Z,1113.84
2022-09-14T10:26:49.916Z,1113.51
2022-09-14T10:27:49.925Z,1113.27
2022-09-14T10:28:50.050Z,1112.99
2022-09-14T10:29:49.922Z,1112.5
2022-09-14T10:30:49.982Z,1111.56
2022-09-14T10:31:49.925Z,1110.27
2022-09-14T10:32:49.925Z,1109.02
2022-09-14T10:33:49.927Z,1107.64
2022-09-14T10:34:49.929Z,1105.43
2022-09-14T10:35:49.936Z,1103.83
2022-09-14T10:36:52.758Z,1102.44
2022-09-14T10:37:49.939Z,1101.07
2022-09-14T10:38:49.950Z,1099.88
2022-09-14T10:39:49.978Z,1098.54
2022-09-14T10:40:49.941Z,1097.63
2022-09-14T10:41:49.943Z,1096.47
2022-09-14T10:42:49.957Z,1095.6
2022-09-14T10:43:49.945Z,1094.71
2022-09-14T10:44:50.005Z,1093.93
2022-09-14T10:45:50.008Z,1093.29
2022-09-14T10:46:50.054Z,1093.06
2022-09-14T10:47:52.745Z,1092.93
2022-09-14T10:48:50.107Z,1092.86
2022-09-14T10:49:50.008Z,1092.52
2022-09-14T10:50:50.151Z,1092.37
2022-09-14T10:51:53.183Z,1092.36
2022-09-14T10:52:49.985Z,1092.14
2022-09-14T10:53:50.100Z,1092.19
2022-09-14T10:54:50.115Z,1091.81
2022-09-14T10:55:50.191Z,1091.25
2022-09-14T10:56:58.871Z,1090.99
2022-09-14T10:57:50.186Z,1090.64
2022-09-14T10:58:52.989Z,1090.37
2022-09-14T10:59:50.184Z,1090
2022-09-14T11:00:50.042Z,1088.93
2022-09-14T11:01:50.473Z,1088.5
2022-09-14T11:02:50.074Z,1088.31
2022-09-14T11:03:49.986Z,1087.96
2022-09-14T11:04:49.993Z,1087.25
2022-09-14T11:05:49.985Z,1086.73
2022-09-14T11:06:50.118Z,1086.42
2022-09-14T11:07:50.004Z,1086.2
2022-09-14T11:08:49.993Z,1085.8
2022-09-14T11:09:50.065Z,1085.47
2022-09-14T11:10:50.007Z,1085.91
2022-09-14T11:11:49.994Z,1086.09
2022-09-14T11:12:50.016Z,1086.4
2022-09-14T11:13:50.043Z,1086.6
2022-09-14T11:14:50.001Z,1086.83
2022-09-14T11:15:50.021Z,1086.84
2022-09-14T11:16:50.028Z,1087.13
2022-09-14T11:17:50.024Z,1087.34
2022-09-14T11:18:50.084Z,1087.74
2022-09-14T11:19:50.013Z,1087.82
2022-09-14T11:20:50.014Z,1087.88
2022-09-14T11:21:50.015Z,1087.95
2022-09-14T11:22:50.040Z,1088.13
2022-09-14T11:23:50.016Z,1088.44
2022-09-14T11:24:50.017Z,1088.54
2022-09-14T11:25:50.030Z,1088.77
2022-09-14T11:26:50.094Z,1088.98
2022-09-14T11:27:50.039Z,1089.36
2022-09-14T11:28:50.183Z,1089.81
2022-09-14T11:29:50.027Z,1090.1
2022-09-14T11:30:50.100Z,1089.96
2022-09-14T11:32:04.411Z,1089.66
2022-09-14T11:32:50.087Z,1089.55
2022-09-14T11:33:50.105Z,1089.49
2022-09-14T11:34:50.044Z,1089.52
2022-09-14T11:35:50.038Z,1088.92
2022-09-14T11:36:50.043Z,1087.99
2022-09-14T11:37:50.060Z,1087.36
2022-09-14T11:38:50.054Z,1086.71
2022-09-14T11:39:50.083Z,1086.18
2022-09-14T11:40:50.048Z,1085.88
2022-09-14T11:41:50.053Z,1085.09
2022-09-14T11:42:50.070Z,1084.68
2022-09-14T11:43:50.125Z,1084.56
2022-09-14T11:44:50.056Z,1084.73
2022-09-14T11:45:50.109Z,1084.8
2022-09-14T11:46:50.123Z,1084.98
2022-09-14T11:47:50.084Z,1084.92
2022-09-14T11:48:50.094Z,1084.61
2022-09-14T11:49:50.081Z,1083.89
2022-09-14T11:50:50.072Z,1083.59
2022-09-14T11:51:50.068Z,1081.64
2022-09-14T11:52:50.088Z,1080.64
2022-09-14T11:53:50.071Z,1078.12
2022-09-14T11:54:50.075Z,1077.53
2022-09-14T11:55:50.077Z,1077.2
2022-09-14T11:56:50.085Z,1076.87
2022-09-14T11:57:50.103Z,1076.29
2022-09-14T11:58:50.132Z,1075.11
2022-09-14T11:59:50.084Z,1074.72
2022-09-14T12:00:50.180Z,1074.27
2022-09-14T12:01:50.249Z,1074.2
2022-09-14T12:02:50.153Z,1073.32
2022-09-14T12:03:52.085Z,1072.41
2022-09-14T12:04:50.141Z,1070.44
2022-09-14T12:05:50.117Z,1068.68
2022-09-14T12:06:50.181Z,1067.99
2022-09-14T12:07:50.130Z,1067.68
2022-09-14T12:08:50.100Z,1067.63
2022-09-14T12:09:50.106Z,1067.57